Time;durP1;ratioP1;P1;durP2;ratioP2;P2;SDS_P1;SDS_P2;PMS_P1;PMS_P2;Temp;Humidity;BMP_temperature;BMP_pressure;BME280_temperature;BME280_humidity;BME280_pressure;Samples;Min_cycle;Max_cycle;Signal;HPM_P1;HPM_P2
2020/12/03 00:00:44;;;;;;;75.30;38.80;;;0.50;99.90;;;;;;5098041;28;20288;-88
2020/12/03 00:03:15;;;;;;;80.00;39.95;;;0.60;99.90;;;;;;5092105;28;20759;-88
2020/12/03 00:05:42;;;;;;;75.22;39.85;;;0.50;99.90;;;;;;5093012;28;20618;-87
2020/12/03 00:08:09;;;;;;;78.78;39.63;;;0.50;99.90;;;;;;5109459;28;20592;-86
2020/12/03 00:10:35;;;;;;;79.03;40.53;;;0.50;99.90;;;;;;5099276;28;20587;-88
2020/12/03 00:13:04;;;;;;;92.43;45.38;;;0.50;99.90;;;;;;5110083;28;20222;-85
2020/12/03 00:15:30;;;;;;;75.97;39.80;;;0.50;99.90;;;;;;5112552;28;20332;-83
2020/12/03 00:17:57;;;;;;;73.40;38.53;;;0.50;99.90;;;;;;5112659;28;20267;-85
2020/12/03 00:20:23;;;;;;;80.50;39.92;;;0.60;99.90;;;;;;5107660;28;20177;-85
2020/12/03 00:22:49;;;;;;;85.82;41.75;;;0.60;99.90;;;;;;5100870;28;20268;-85
2020/12/03 00:25:15;;;;;;;74.67;40.10;;;0.70;99.90;;;;;;5112510;28;20911;-85
2020/12/03 00:27:48;;;;;;;79.72;40.25;;;0.70;99.90;;;;;;5096358;28;20533;-85
2020/12/03 00:30:15;;;;;;;75.80;38.40;;;0.70;99.90;;;;;;5097654;28;20617;-85
2020/12/03 00:32:41;;;;;;;80.78;40.88;;;0.70;99.90;;;;;;5108892;28;20192;-85
2020/12/03 00:35:07;;;;;;;87.78;41.70;;;0.70;99.90;;;;;;5107245;28;20282;-85
2020/12/03 00:37:33;;;;;;;78.35;37.95;;;0.60;99.90;;;;;;5101329;28;20695;-85
2020/12/03 00:39:59;;;;;;;81.03;40.85;;;0.60;99.90;;;;;;5112839;28;20610;-87
2020/12/03 00:42:25;;;;;;;76.38;38.95;;;0.60;99.90;;;;;;5101004;28;20273;-87
2020/12/03 00:44:51;;;;;;;69.88;37.40;;;0.50;99.90;;;;;;5107411;28;20275;-87
2020/12/03 00:47:18;;;;;;;72.35;39.60;;;0.40;99.90;;;;;;5108534;28;20267;-87
2020/12/03 00:49:44;;;;;;;71.15;37.10;;;0.30;99.90;;;;;;5099898;28;20271;-86
2020/12/03 00:52:10;;;;;;;83.82;40.20;;;0.30;99.90;;;;;;5110874;28;20230;-87
2020/12/03 00:54:36;;;;;;;84.73;41.27;;;0.20;99.90;;;;;;5102790;28;20655;-84
2020/12/03 00:57:03;;;;;;;71.43;38.50;;;0.20;99.90;;;;;;5105654;28;20496;-84
2020/12/03 00:59:29;;;;;;;88.20;43.42;;;0.10;99.90;;;;;;5110264;28;20188;-85
2020/12/03 01:01:55;;;;;;;74.50;39.28;;;0.00;99.90;;;;;;5099187;28;20212;-85
2020/12/03 01:04:22;;;;;;;75.80;38.95;;;-0.10;99.90;;;;;;5111376;28;20520;-84
2020/12/03 01:06:48;;;;;;;79.60;40.45;;;0.00;99.90;;;;;;5104003;28;20274;-84
2020/12/03 01:09:14;;;;;;;76.73;41.60;;;0.00;99.90;;;;;;5103275;28;20193;-84
2020/12/03 01:11:40;;;;;;;83.57;41.63;;;0.00;99.90;;;;;;5111075;28;20529;-84
2020/12/03 01:14:07;;;;;;;89.17;42.50;;;0.10;99.90;;;;;;5112834;28;20215;-84
2020/12/03 01:16:33;;;;;;;85.47;43.83;;;0.10;99.90;;;;;;5115521;28;20545;-83
2020/12/03 01:18:59;;;;;;;83.88;43.08;;;0.10;99.90;;;;;;5115591;27;20188;-83
2020/12/03 01:21:25;;;;;;;90.97;42.33;;;0.10;99.90;;;;;;5107825;28;20616;-83
2020/12/03 01:23:51;;;;;;;82.63;43.05;;;0.20;99.90;;;;;;5098477;28;20529;-84
2020/12/03 01:26:18;;;;;;;85.93;41.77;;;0.20;99.90;;;;;;5110945;28;20242;-84
2020/12/03 01:28:45;;;;;;;76.93;40.60;;;0.20;99.90;;;;;;5103098;28;20524;-84
2020/12/03 01:31:11;;;;;;;90.97;42.20;;;0.30;99.90;;;;;;5103360;28;20292;-84
2020/12/03 01:33:37;;;;;;;89.13;42.35;;;0.30;99.90;;;;;;5110373;28;20199;-85
2020/12/03 01:36:03;;;;;;;83.50;42.42;;;0.30;99.90;;;;;;5098055;28;20267;-84
2020/12/03 01:38:30;;;;;;;84.82;40.13;;;0.40;99.90;;;;;;5109201;28;20264;-85
2020/12/03 01:40:56;;;;;;;88.53;41.55;;;0.40;99.90;;;;;;5104385;28;20279;-84
2020/12/03 01:43:22;;;;;;;93.30;42.63;;;0.40;99.90;;;;;;5101203;28;20785;-84
2020/12/03 01:45:55;;;;;;;85.57;41.73;;;0.50;99.90;;;;;;5111516;28;20183;-85
2020/12/03 01:48:31;;;;;;;80.18;41.95;;;0.50;99.90;;;;;;5099288;28;20525;-85
2020/12/03 01:50:58;;;;;;;85.93;42.20;;;0.50;99.90;;;;;;5105106;28;20184;-86
2020/12/03 01:53:24;;;;;;;87.32;43.15;;;0.50;99.90;;;;;;5107949;28;20729;-86
2020/12/03 01:55:52;;;;;;;83.28;41.70;;;0.50;99.90;;;;;;5102381;28;20275;-85
2020/12/03 01:58:30;;;;;;;81.38;41.40;;;0.60;99.90;;;;;;5110497;28;20272;-85
2020/12/03 02:00:57;;;;;;;79.50;41.78;;;0.60;99.90;;;;;;5109421;28;20282;-86
2020/12/03 02:03:23;;;;;;;89.35;42.20;;;0.60;99.90;;;;;;5101075;28;20299;-86
2020/12/03 02:05:49;;;;;;;81.32;44.20;;;0.60;99.90;;;;;;5111011;28;20184;-86
2020/12/03 02:08:15;;;;;;;85.70;42.95;;;0.50;99.90;;;;;;5098139;28;20197;-86
2020/12/03 02:10:41;;;;;;;77.00;41.20;;;0.40;99.90;;;;;;5106952;28;20293;-86
2020/12/03 02:13:08;;;;;;;82.47;41.93;;;0.40;99.90;;;;;;5096412;28;20188;-86
2020/12/03 02:15:36;;;;;;;83.50;42.30;;;0.30;99.90;;;;;;5108695;28;20560;-86
2020/12/03 02:18:03;;;;;;;84.68;42.25;;;0.20;99.90;;;;;;5114152;28;20227;-86
2020/12/03 02:20:30;;;;;;;85.85;42.70;;;0.10;99.90;;;;;;5108356;28;20271;-86
2020/12/03 02:22:56;;;;;;;84.97;41.28;;;0.00;99.90;;;;;;5103563;28;20217;-85
2020/12/03 02:25:22;;;;;;;90.07;44.15;;;-0.20;99.90;;;;;;5100922;28;20263;-86
2020/12/03 02:27:48;;;;;;;81.78;43.15;;;-0.20;99.90;;;;;;5110417;28;20338;-86
2020/12/03 02:30:14;;;;;;;90.30;45.93;;;-0.30;99.90;;;;;;5097470;28;20184;-84
2020/12/03 02:32:41;;;;;;;92.38;44.03;;;-0.30;99.90;;;;;;5106366;28;20521;-85
2020/12/03 02:35:10;;;;;;;93.63;44.72;;;-0.30;99.90;;;;;;5104865;28;20266;-85
2020/12/03 02:37:37;;;;;;;88.50;42.92;;;-0.30;99.90;;;;;;5098504;28;20720;-85
2020/12/03 02:40:05;;;;;;;84.80;44.20;;;-0.30;99.90;;;;;;5110445;28;20725;-86
2020/12/03 02:42:31;;;;;;;90.85;43.97;;;-0.30;99.90;;;;;;5099448;28;20281;-85
2020/12/03 02:44:57;;;;;;;78.15;42.33;;;-0.30;99.90;;;;;;5103969;28;20272;-86
2020/12/03 02:47:24;;;;;;;98.75;44.83;;;-0.30;99.90;;;;;;5106687;28;20267;-86
2020/12/03 02:49:51;;;;;;;92.45;44.45;;;-0.30;99.90;;;;;;5097152;28;20272;-85
2020/12/03 02:52:19;;;;;;;96.07;44.67;;;-0.30;99.90;;;;;;5109589;28;20623;-85
2020/12/03 02:54:46;;;;;;;89.18;44.38;;;-0.20;99.90;;;;;;5100579;28;20276;-84
2020/12/03 02:57:12;;;;;;;99.88;45.63;;;-0.20;99.90;;;;;;5101567;28;20188;-85
2020/12/03 02:59:39;;;;;;;94.82;43.90;;;-0.20;99.90;;;;;;5108845;28;20263;-84
2020/12/03 03:02:05;;;;;;;98.45;47.65;;;-0.10;99.90;;;;;;5096405;28;20303;-84
2020/12/03 03:04:32;;;;;;;88.63;44.83;;;-0.10;99.90;;;;;;5107466;28;20271;-84
2020/12/03 03:06:58;;;;;;;93.95;45.45;;;-0.10;99.90;;;;;;5103360;28;20278;-86
2020/12/03 03:09:24;;;;;;;92.20;46.00;;;-0.10;99.90;;;;;;5100114;28;20587;-86
2020/12/03 03:11:52;;;;;;;89.93;44.03;;;-0.10;99.90;;;;;;5109759;28;20365;-86
2020/12/03 03:14:18;;;;;;;92.75;45.40;;;-0.10;99.90;;;;;;5111291;28;20318;-85
2020/12/03 03:16:44;;;;;;;94.72;47.88;;;-0.10;99.90;;;;;;5113320;28;20295;-86
2020/12/03 03:19:10;;;;;;;100.13;47.53;;;-0.10;99.90;;;;;;5113280;28;20227;-86
2020/12/03 03:21:37;;;;;;;105.60;48.40;;;-0.20;99.90;;;;;;5106531;28;20314;-86
2020/12/03 03:24:04;;;;;;;100.53;47.40;;;-0.20;99.90;;;;;;5113046;28;20267;-86
2020/12/03 03:26:30;;;;;;;98.70;46.53;;;-0.20;99.90;;;;;;5107314;28;20275;-85
2020/12/03 03:28:56;;;;;;;110.78;49.20;;;-0.10;99.90;;;;;;5102081;28;20195;-85
2020/12/03 03:31:22;;;;;;;97.78;46.25;;;-0.10;99.90;;;;;;5099839;28;20279;-86
2020/12/03 03:33:48;;;;;;;104.50;47.60;;;0.00;99.90;;;;;;5109623;28;20646;-88
2020/12/03 03:36:15;;;;;;;97.15;45.60;;;0.00;99.90;;;;;;5102159;28;21035;-92
2020/12/03 03:38:42;;;;;;;102.00;46.67;;;0.00;99.90;;;;;;5103649;28;20249;-90
2020/12/03 03:41:08;;;;;;;99.63;47.03;;;0.00;99.90;;;;;;5105717;28;20188;-89
2020/12/03 03:43:34;;;;;;;103.05;47.65;;;0.00;99.90;;;;;;5096017;28;20295;-85
2020/12/03 03:46:01;;;;;;;98.90;46.83;;;0.00;99.90;;;;;;5109518;28;20264;-88
2020/12/03 03:48:27;;;;;;;107.25;47.42;;;0.00;99.90;;;;;;5097403;28;20218;-88
2020/12/03 03:50:53;;;;;;;92.03;46.20;;;0.10;99.90;;;;;;5103931;28;20631;-88
2020/12/03 03:53:20;;;;;;;107.60;48.97;;;0.10;99.90;;;;;;5112790;28;20980;-86
2020/12/03 03:55:46;;;;;;;103.18;48.58;;;0.10;99.90;;;;;;5096080;28;20344;-89
2020/12/03 03:58:12;;;;;;;97.80;46.30;;;0.20;99.90;;;;;;5107495;28;20201;-90
2020/12/03 04:00:41;;;;;;;100.93;45.53;;;0.20;99.90;;;;;;5101381;28;20677;-89
2020/12/03 04:03:08;;;;;;;101.43;46.72;;;0.20;99.90;;;;;;5099894;28;20617;-89
2020/12/03 04:05:34;;;;;;;103.03;46.80;;;0.20;99.90;;;;;;5111496;28;20241;-90
2020/12/03 04:08:00;;;;;;;99.03;47.35;;;0.20;99.90;;;;;;5100136;28;20762;-90
2020/12/03 04:10:26;;;;;;;106.03;47.67;;;0.20;99.90;;;;;;5109578;28;20208;-84
2020/12/03 04:12:52;;;;;;;104.43;47.70;;;0.20;99.90;;;;;;5100567;28;20271;-88
2020/12/03 04:15:18;;;;;;;105.40;47.47;;;0.20;99.90;;;;;;5105788;28;20291;-87
2020/12/03 04:17:44;;;;;;;110.17;48.37;;;0.20;99.90;;;;;;5107459;28;20245;-87
2020/12/03 04:20:15;;;;;;;104.05;46.47;;;0.20;99.90;;;;;;5108174;28;20525;-85
2020/12/03 04:22:41;;;;;;;105.13;47.65;;;0.20;99.90;;;;;;5107900;28;20270;-86
2020/12/03 04:25:07;;;;;;;107.38;49.40;;;0.20;99.90;;;;;;5106324;28;20272;-85
2020/12/03 04:27:33;;;;;;;113.85;51.58;;;0.20;99.90;;;;;;5112825;28;20180;-85
2020/12/03 04:29:59;;;;;;;105.30;48.90;;;0.20;99.90;;;;;;5113007;28;20542;-85
2020/12/03 04:32:25;;;;;;;112.90;48.45;;;0.20;99.90;;;;;;5111656;28;20267;-86
2020/12/03 04:34:51;;;;;;;101.23;47.53;;;0.20;99.90;;;;;;5105335;28;20184;-85
2020/12/03 04:37:18;;;;;;;100.72;47.72;;;0.20;99.90;;;;;;5110499;28;20534;-86
2020/12/03 04:39:44;;;;;;;108.93;50.00;;;0.20;99.90;;;;;;5099226;28;20272;-87
2020/12/03 04:42:21;;;;;;;109.00;45.90;;;0.20;99.90;;;;;;5111123;27;20299;-86
2020/12/03 04:44:48;;;;;;;106.75;47.22;;;0.20;99.90;;;;;;5113580;28;20292;-87
2020/12/03 04:47:33;;;;;;;112.20;48.42;;;0.20;99.90;;;;;;5102165;28;20224;-86
2020/12/03 04:50:07;;;;;;;110.10;47.65;;;0.20;99.90;;;;;;5112556;28;20207;-86
2020/12/03 04:52:57;;;;;;;100.63;46.28;;;0.20;99.90;;;;;;5103804;28;20275;-87
2020/12/03 04:55:30;;;;;;;99.47;46.03;;;0.30;99.90;;;;;;5100690;28;20185;-87
2020/12/03 04:58:05;;;;;;;101.63;46.35;;;0.30;99.90;;;;;;5112411;28;20200;-87
2020/12/03 05:00:40;;;;;;;105.65;48.08;;;0.30;99.90;;;;;;5103565;28;20263;-86
2020/12/03 05:03:50;;;;;;;98.63;45.10;;;0.30;99.90;;;;;;5102903;28;20302;-86
2020/12/03 05:06:46;;;;;;;107.72;46.72;;;0.40;99.90;;;;;;5101425;28;20267;-87
2020/12/03 05:09:20;;;;;;;93.15;43.55;;;0.40;99.90;;;;;;5100541;28;20272;-87
2020/12/03 05:11:50;;;;;;;97.35;43.88;;;0.50;99.90;;;;;;5112238;28;20273;-87
2020/12/03 05:14:37;;;;;;;98.85;46.90;;;0.50;99.90;;;;;;5113540;28;20294;-86
2020/12/03 05:17:20;;;;;;;90.90;43.78;;;0.50;99.90;;;;;;5101965;28;20219;-85
2020/12/03 05:19:57;;;;;;;100.55;44.25;;;0.60;99.90;;;;;;5113267;28;20714;-85
2020/12/03 05:22:24;;;;;;;96.32;42.95;;;0.60;99.90;;;;;;5115492;28;20242;-86
2020/12/03 05:24:51;;;;;;;100.97;45.78;;;0.60;99.90;;;;;;5104563;28;20196;-86
2020/12/03 05:27:20;;;;;;;101.75;45.50;;;0.60;99.90;;;;;;5109546;28;20280;-88
2020/12/03 05:29:47;;;;;;;102.38;46.63;;;0.70;99.90;;;;;;5098498;27;20582;-88
2020/12/03 05:32:13;;;;;;;101.85;46.15;;;0.70;99.90;;;;;;5109998;28;20603;-88
2020/12/03 05:34:40;;;;;;;103.13;46.58;;;0.70;99.90;;;;;;5104056;28;20195;-88
2020/12/03 05:37:11;;;;;;;100.28;49.63;;;0.70;99.90;;;;;;5102352;28;20607;-85
2020/12/03 05:39:52;;;;;;;93.65;47.33;;;0.70;99.90;;;;;;5111536;28;20184;-86
2020/12/03 05:42:22;;;;;;;105.82;46.78;;;0.70;99.90;;;;;;5100709;28;20702;-87
2020/12/03 05:44:53;;;;;;;103.93;46.08;;;0.70;99.90;;;;;;5104656;28;20219;-90
2020/12/03 05:47:24;;;;;;;97.43;44.40;;;0.80;99.90;;;;;;5109553;28;20601;-89
2020/12/03 05:49:55;;;;;;;111.68;45.50;;;0.80;99.90;;;;;;5098056;28;20249;-90
2020/12/03 05:52:23;;;;;;;103.90;48.40;;;0.80;99.90;;;;;;5108452;28;20249;-89
2020/12/03 05:54:59;;;;;;;104.18;46.97;;;0.80;99.90;;;;;;5104760;28;20257;-89
2020/12/03 05:57:28;;;;;;;101.78;46.92;;;0.80;99.90;;;;;;5099393;28;20190;-90
2020/12/03 06:00:06;;;;;;;94.45;44.72;;;0.80;99.90;;;;;;5111086;28;20227;-90
2020/12/03 06:02:40;;;;;;;93.55;43.55;;;0.80;99.90;;;;;;5102574;28;20733;-90
2020/12/03 06:05:16;;;;;;;102.70;45.42;;;0.80;99.90;;;;;;5101525;28;20600;-90
2020/12/03 06:08:07;;;;;;;96.78;43.65;;;0.80;99.90;;;;;;5111215;28;20266;-91
2020/12/03 06:10:46;;;;;;;97.80;43.75;;;0.80;99.90;;;;;;5102490;28;20212;-86
2020/12/03 06:13:25;;;;;;;97.13;43.78;;;0.80;99.90;;;;;;5110236;28;20215;-87
2020/12/03 06:15:58;;;;;;;95.13;43.50;;;0.80;99.90;;;;;;5111775;28;20246;-87
2020/12/03 06:18:41;;;;;;;98.35;45.05;;;0.90;99.90;;;;;;5101269;28;20275;-86
2020/12/03 06:21:28;;;;;;;84.40;41.30;;;0.80;99.90;;;;;;5114238;28;20616;-86
2020/12/03 06:24:19;;;;;;;90.10;42.20;;;0.80;99.90;;;;;;5087558;28;20396;-87
2020/12/03 06:27:02;;;;;;;95.60;42.50;;;0.80;99.90;;;;;;5114027;28;20278;-87
2020/12/03 06:29:39;;;;;;;100.32;41.80;;;0.80;99.90;;;;;;5098133;27;20237;-85
2020/12/03 06:32:30;;;;;;;88.70;42.03;;;0.80;99.90;;;;;;5098081;28;20215;-88
2020/12/03 06:35:02;;;;;;;91.45;41.40;;;0.80;99.90;;;;;;5102483;28;20614;-88
2020/12/03 06:37:35;;;;;;;101.10;43.20;;;0.80;99.90;;;;;;5109803;28;20222;-88
2020/12/03 06:40:06;;;;;;;94.85;42.47;;;0.90;99.90;;;;;;5097384;28;20271;-90
2020/12/03 06:42:41;;;;;;;98.40;43.38;;;0.80;99.90;;;;;;5105707;28;20307;-89
2020/12/03 06:45:21;;;;;;;82.93;42.55;;;0.80;99.90;;;;;;5106686;28;20211;-89
2020/12/03 06:48:15;;;;;;;96.05;42.60;;;0.80;99.90;;;;;;5097072;28;20271;-85
2020/12/03 06:51:00;;;;;;;99.57;42.10;;;0.80;99.90;;;;;;5104323;28;20628;-85
2020/12/03 06:53:55;;;;;;;97.57;43.50;;;0.90;99.90;;;;;;5109258;28;20216;-84
2020/12/03 06:56:41;;;;;;;93.85;43.85;;;0.90;99.90;;;;;;5099930;28;20267;-85
2020/12/03 06:59:45;;;;;;;94.28;42.50;;;0.90;99.90;;;;;;5100664;28;20197;-87
2020/12/03 07:02:49;;;;;;;86.82;41.45;;;0.90;99.90;;;;;;5095028;28;20294;-87
2020/12/03 07:05:55;;;;;;;94.07;40.83;;;1.00;99.90;;;;;;5099343;28;20275;-86
2020/12/03 07:08:43;;;;;;;87.55;41.70;;;1.00;99.90;;;;;;5099833;28;20188;-86
2020/12/03 07:11:35;;;;;;;92.93;41.38;;;1.00;99.90;;;;;;5100229;28;20272;-86
2020/12/03 07:14:38;;;;;;;92.13;41.33;;;1.00;99.90;;;;;;5105356;28;20645;-87
2020/12/03 07:17:42;;;;;;;86.50;40.53;;;1.00;99.90;;;;;;5105431;28;20709;-87
2020/12/03 07:20:41;;;;;;;87.25;40.13;;;1.00;99.90;;;;;;5100652;28;20271;-87
2020/12/03 07:23:11;;;;;;;93.95;39.00;;;1.00;99.90;;;;;;5113251;28;20678;-87
2020/12/03 07:25:39;;;;;;;90.85;41.30;;;1.00;99.90;;;;;;5096385;28;20220;-88
2020/12/03 07:28:25;;;;;;;89.25;41.25;;;1.10;99.90;;;;;;5108883;28;20631;-87
2020/12/03 07:30:54;;;;;;;83.88;38.20;;;1.00;99.90;;;;;;5103405;28;20635;-88
2020/12/03 07:33:33;;;;;;;86.13;42.17;;;1.00;99.90;;;;;;5098402;28;20271;-87
2020/12/03 07:36:17;;;;;;;98.80;43.28;;;1.00;99.90;;;;;;5096386;28;20603;-87
2020/12/03 07:38:51;;;;;;;78.13;38.85;;;1.00;99.90;;;;;;5104964;28;20262;-87
2020/12/03 07:41:20;;;;;;;82.10;38.03;;;1.00;99.90;;;;;;5093753;28;20271;-87
2020/12/03 07:43:46;;;;;;;83.43;40.90;;;1.00;99.90;;;;;;5109534;28;20315;-87
2020/12/03 07:46:39;;;;;;;84.38;38.15;;;0.90;99.90;;;;;;5099268;28;20583;-86
2020/12/03 07:49:09;;;;;;;82.95;38.85;;;1.00;99.90;;;;;;5098977;28;20251;-86
2020/12/03 07:51:36;;;;;;;84.63;38.08;;;1.00;99.90;;;;;;5109198;28;20241;-86
2020/12/03 07:54:22;;;;;;;84.00;39.50;;;1.00;99.90;;;;;;5097843;28;20275;-86
2020/12/03 07:56:48;;;;;;;92.53;39.17;;;1.10;99.90;;;;;;5100704;28;20195;-86
2020/12/03 07:59:34;;;;;;;84.28;39.13;;;1.10;99.90;;;;;;5107900;28;20187;-87
2020/12/03 08:02:02;;;;;;;100.32;41.35;;;1.20;99.90;;;;;;5097120;28;20230;-86
2020/12/03 08:04:32;;;;;;;90.90;40.75;;;1.20;99.90;;;;;;5104267;28;20268;-85
2020/12/03 08:07:33;;;;;;;79.40;39.33;;;1.20;99.90;;;;;;5105207;28;20678;-87
2020/12/03 08:09:59;;;;;;;88.55;38.03;;;1.30;99.90;;;;;;5097221;28;20258;-87
2020/12/03 08:12:28;;;;;;;71.87;36.80;;;1.40;99.90;;;;;;5107038;28;20303;-90
2020/12/03 08:14:55;;;;;;;76.85;37.80;;;1.50;99.90;;;;;;5112546;28;20477;-91
2020/12/03 08:17:46;;;;;;;76.30;38.22;;;1.60;99.90;;;;;;5096570;28;20276;-89
2020/12/03 08:20:44;;;;;;;83.95;38.10;;;1.60;99.90;;;;;;5100827;28;20252;-87
2020/12/03 08:23:13;;;;;;;79.55;37.05;;;1.70;99.90;;;;;;5112806;28;20307;-87
2020/12/03 08:25:45;;;;;;;80.20;37.13;;;1.70;99.90;;;;;;5095777;28;20191;-87
2020/12/03 08:28:19;;;;;;;74.60;38.35;;;1.70;99.90;;;;;;5106268;28;20631;-86
2020/12/03 08:30:50;;;;;;;83.20;37.38;;;1.80;99.90;;;;;;5103313;28;20183;-86
2020/12/03 08:33:24;;;;;;;84.00;39.03;;;1.80;99.90;;;;;;5097119;28;20578;-86
2020/12/03 08:35:52;;;;;;;72.10;36.22;;;1.80;99.90;;;;;;5109189;28;20195;-86
2020/12/03 08:38:20;;;;;;;71.70;35.58;;;1.90;99.90;;;;;;5099557;28;20184;-86
2020/12/03 08:40:47;;;;;;;77.63;36.45;;;1.90;99.90;;;;;;5101233;28;20188;-87
2020/12/03 08:43:17;;;;;;;79.55;38.25;;;2.00;99.90;;;;;;5107059;28;20302;-87
2020/12/03 08:45:50;;;;;;;68.82;37.65;;;2.00;99.90;;;;;;5095534;28;20678;-87
2020/12/03 08:48:23;;;;;;;75.03;35.00;;;2.00;99.90;;;;;;5105475;28;20594;-86
2020/12/03 08:50:55;;;;;;;86.15;40.03;;;2.00;99.90;;;;;;5104710;28;20187;-86
2020/12/03 08:53:21;;;;;;;71.43;34.67;;;2.00;99.90;;;;;;5099766;28;20184;-86
2020/12/03 08:55:47;;;;;;;71.95;35.88;;;2.00;99.90;;;;;;5112509;28;20181;-85
2020/12/03 08:58:16;;;;;;;75.80;37.47;;;2.00;99.90;;;;;;5102023;28;20219;-86
2020/12/03 09:00:43;;;;;;;77.35;38.10;;;2.00;99.90;;;;;;5105226;28;20268;-84
2020/12/03 09:03:14;;;;;;;72.10;34.60;;;2.00;99.90;;;;;;5109723;28;20626;-84
2020/12/03 09:05:43;;;;;;;69.57;35.40;;;2.10;99.90;;;;;;5099109;28;20196;-84
2020/12/03 09:08:16;;;;;;;78.47;38.25;;;2.10;99.90;;;;;;5109415;28;20528;-85
2020/12/03 09:10:42;;;;;;;80.13;39.75;;;2.20;99.90;;;;;;5106018;28;20291;-86
2020/12/03 09:13:08;;;;;;;79.15;38.85;;;2.20;99.90;;;;;;5108876;28;20278;-85
2020/12/03 09:15:35;;;;;;;72.78;37.35;;;2.20;99.90;;;;;;5098547;28;20224;-82
2020/12/03 09:18:05;;;;;;;75.63;39.42;;;2.30;99.90;;;;;;5107965;28;20288;-80
2020/12/03 09:20:31;;;;;;;67.03;34.70;;;2.30;99.90;;;;;;5114626;28;20608;-83
2020/12/03 09:22:58;;;;;;;68.78;34.65;;;2.30;99.90;;;;;;5102200;28;20295;-82
2020/12/03 09:25:25;;;;;;;68.13;34.15;;;2.30;99.90;;;;;;5104024;28;20714;-83
2020/12/03 09:27:52;;;;;;;58.50;33.58;;;2.40;99.90;;;;;;5109537;28;20267;-83
2020/12/03 09:30:20;;;;;;;67.97;34.33;;;2.40;99.90;;;;;;5110331;28;20279;-83
2020/12/03 09:32:51;;;;;;;62.25;32.90;;;2.40;99.90;;;;;;5114876;27;20219;-83
2020/12/03 09:35:19;;;;;;;64.32;33.90;;;2.40;99.90;;;;;;5105925;28;20233;-83
2020/12/03 09:37:45;;;;;;;58.95;31.98;;;2.40;99.90;;;;;;5112007;28;20215;-83
2020/12/03 09:40:12;;;;;;;58.78;31.75;;;2.40;99.90;;;;;;5101321;28;20730;-83
2020/12/03 09:42:45;;;;;;;63.25;32.78;;;2.40;99.90;;;;;;5104440;28;20766;-83
2020/12/03 09:45:14;;;;;;;70.47;34.50;;;2.50;99.90;;;;;;5109603;28;20274;-83
2020/12/03 09:47:41;;;;;;;66.50;32.20;;;2.50;99.90;;;;;;5104075;28;20220;-83
2020/12/03 09:50:07;;;;;;;59.05;33.17;;;2.50;99.90;;;;;;5108952;28;20180;-83
2020/12/03 09:52:35;;;;;;;59.75;32.42;;;2.60;99.90;;;;;;5103912;28;20279;-83
2020/12/03 09:55:17;;;;;;;63.65;32.78;;;2.60;99.90;;;;;;5101542;28;20189;-83
2020/12/03 09:57:52;;;;;;;60.47;31.73;;;2.70;99.90;;;;;;5111248;28;20180;-84
2020/12/03 10:00:25;;;;;;;61.08;32.35;;;2.60;99.90;;;;;;5101754;28;20267;-84
2020/12/03 10:03:24;;;;;;;59.90;31.02;;;2.70;99.90;;;;;;5101894;28;20776;-84
2020/12/03 10:06:11;;;;;;;61.63;31.25;;;2.70;99.90;;;;;;5111115;28;20259;-84
2020/12/03 10:09:12;;;;;;;60.00;32.28;;;2.80;99.90;;;;;;5104047;28;20188;-83
2020/12/03 10:12:20;;;;;;;47.60;27.75;;;2.90;99.90;;;;;;5097713;28;20275;-82
2020/12/03 10:15:02;;;;;;;64.47;30.48;;;2.90;99.90;;;;;;5105208;28;20216;-83
2020/12/03 10:17:33;;;;;;;59.53;31.40;;;3.00;99.90;;;;;;5097148;28;20600;-82
2020/12/03 10:20:03;;;;;;;61.15;32.15;;;3.10;99.90;;;;;;5109386;28;20188;-83
2020/12/03 10:22:34;;;;;;;54.60;30.05;;;3.10;99.90;;;;;;5102885;28;20192;-84
2020/12/03 10:25:11;;;;;;;56.72;30.45;;;3.10;99.90;;;;;;5114190;27;20619;-83
2020/12/03 10:27:43;;;;;;;56.88;30.08;;;3.20;99.90;;;;;;5112365;28;20190;-83
2020/12/03 10:30:19;;;;;;;55.08;28.85;;;3.20;99.90;;;;;;5100089;28;20595;-83
2020/12/03 10:32:51;;;;;;;50.88;28.92;;;3.30;99.90;;;;;;5102971;28;20776;-84
2020/12/03 10:35:17;;;;;;;50.67;29.73;;;3.40;99.90;;;;;;5109378;28;20183;-83
2020/12/03 10:37:47;;;;;;;52.63;30.42;;;3.40;99.90;;;;;;5096887;28;20601;-84
2020/12/03 10:40:17;;;;;;;57.65;31.25;;;3.50;99.90;;;;;;5107220;28;20271;-84
2020/12/03 10:42:48;;;;;;;52.13;29.13;;;3.50;99.90;;;;;;5104370;28;20241;-83
2020/12/03 10:45:18;;;;;;;55.38;30.85;;;3.60;99.90;;;;;;5098851;28;20193;-84
2020/12/03 10:47:47;;;;;;;48.70;28.73;;;3.60;99.90;;;;;;5110283;28;20532;-83
2020/12/03 10:50:16;;;;;;;57.50;32.25;;;3.60;99.90;;;;;;5099955;28;20180;-83
2020/12/03 10:52:44;;;;;;;52.63;30.15;;;3.50;99.90;;;;;;5102788;27;20188;-83
2020/12/03 10:55:11;;;;;;;56.17;29.60;;;3.50;99.90;;;;;;5108012;28;20555;-83
2020/12/03 10:57:44;;;;;;;53.88;28.58;;;3.50;99.90;;;;;;5096601;28;20258;-84
2020/12/03 11:00:12;;;;;;;58.72;31.27;;;3.50;99.90;;;;;;5107287;28;20184;-83
2020/12/03 11:02:41;;;;;;;47.75;26.33;;;3.50;99.90;;;;;;5103143;28;20299;-84
2020/12/03 11:05:09;;;;;;;55.10;29.67;;;3.60;99.90;;;;;;5099093;28;20212;-84
2020/12/03 11:07:36;;;;;;;54.13;28.98;;;3.50;99.90;;;;;;5110105;28;20194;-82
2020/12/03 11:10:03;;;;;;;68.28;28.73;;;3.50;99.90;;;;;;5098294;28;20184;-83
2020/12/03 11:12:30;;;;;;;68.93;34.22;;;3.40;99.90;;;;;;5107756;28;20215;-84
2020/12/03 11:15:01;;;;;;;72.57;29.83;;;3.40;99.90;;;;;;5114128;28;20244;-84
2020/12/03 11:17:47;;;;;;;52.92;27.70;;;3.50;99.90;;;;;;5096530;28;20238;-84
2020/12/03 11:20:14;;;;;;;49.00;27.55;;;3.50;99.90;;;;;;5106705;28;20264;-84
2020/12/03 11:23:01;;;;;;;55.60;30.23;;;3.50;99.90;;;;;;5103356;28;20264;-84
2020/12/03 11:25:29;;;;;;;51.53;29.25;;;3.60;99.90;;;;;;5111459;28;20180;-84
2020/12/03 11:27:55;;;;;;;46.50;26.80;;;3.60;99.90;;;;;;5093738;28;20181;-83
2020/12/03 11:30:23;;;;;;;54.58;29.65;;;3.60;99.90;;;;;;5100176;28;20256;-84
2020/12/03 11:32:52;;;;;;;46.55;27.95;;;3.70;99.90;;;;;;5100708;28;20189;-84
2020/12/03 11:35:26;;;;;;;45.88;25.77;;;3.70;99.90;;;;;;5108372;28;20279;-84
2020/12/03 11:37:53;;;;;;;48.35;27.50;;;3.70;99.90;;;;;;5092862;28;20180;-84
2020/12/03 11:40:27;;;;;;;50.40;28.10;;;3.70;99.90;;;;;;5092627;28;20183;-83
2020/12/03 11:43:02;;;;;;;51.55;27.92;;;3.80;99.90;;;;;;5092404;28;20705;-83
2020/12/03 11:48:29;;;;;;;49.03;26.67;;;3.80;99.90;;;;;;5067811;28;20539;-83
2020/12/03 11:50:55;;;;;;;45.90;27.35;;;3.80;99.90;;;;;;5092468;28;20184;-83
2020/12/03 11:53:21;;;;;;;44.83;26.03;;;3.70;99.90;;;;;;5106817;28;20233;-83
2020/12/03 11:55:47;;;;;;;46.60;24.90;;;3.70;99.90;;;;;;5109238;28;20493;-83
2020/12/03 11:58:14;;;;;;;49.47;26.48;;;3.60;99.90;;;;;;5095854;28;20291;-83
2020/12/03 12:00:40;;;;;;;51.65;27.67;;;3.60;99.90;;;;;;5092195;28;20280;-83
2020/12/03 12:03:07;;;;;;;45.75;26.45;;;3.60;99.90;;;;;;5092373;28;20208;-83
2020/12/03 12:05:47;;;;;;;47.50;25.92;;;3.60;99.90;;;;;;5092173;28;20237;-82
2020/12/03 12:08:21;;;;;;;46.92;25.08;;;3.60;99.90;;;;;;5092326;28;20623;-83
2020/12/03 12:10:53;;;;;;;44.42;26.15;;;3.50;99.90;;;;;;5092241;28;20212;-83
2020/12/03 12:13:19;;;;;;;48.03;26.40;;;3.60;99.90;;;;;;5102607;28;20587;-83
2020/12/03 12:15:45;;;;;;;45.10;24.75;;;3.60;99.90;;;;;;5092496;28;20216;-83
2020/12/03 12:18:11;;;;;;;45.93;25.57;;;3.60;99.90;;;;;;5091900;28;20582;-83
2020/12/03 12:20:39;;;;;;;40.22;23.92;;;3.60;99.90;;;;;;5091850;28;20438;-83
2020/12/03 12:23:05;;;;;;;38.20;24.30;;;3.50;99.90;;;;;;5094263;28;20215;-83
2020/12/03 12:25:31;;;;;;;42.47;23.47;;;3.50;99.90;;;;;;5112683;28;20192;-83
2020/12/03 12:27:57;;;;;;;45.13;25.85;;;3.50;99.90;;;;;;5116042;28;20446;-83
2020/12/03 12:30:23;;;;;;;42.90;25.27;;;3.50;99.90;;;;;;5107980;28;20226;-84
2020/12/03 12:32:49;;;;;;;41.75;24.05;;;3.50;99.90;;;;;;5095562;28;20450;-83
2020/12/03 12:35:15;;;;;;;39.08;23.17;;;3.50;99.90;;;;;;5095862;28;20223;-83
2020/12/03 12:37:42;;;;;;;43.47;24.80;;;3.50;99.90;;;;;;5095809;28;20591;-83
2020/12/03 12:40:08;;;;;;;41.28;22.85;;;3.50;99.90;;;;;;5095588;28;20271;-84
2020/12/03 12:42:34;;;;;;;36.50;22.73;;;3.50;99.90;;;;;;5095435;28;20212;-83
2020/12/03 12:45:00;;;;;;;41.75;23.77;;;3.50;99.90;;;;;;5095588;28;20279;-83
2020/12/03 12:47:27;;;;;;;38.30;22.63;;;3.50;99.90;;;;;;5095478;28;20709;-83
2020/12/03 12:49:53;;;;;;;43.00;24.08;;;3.50;99.90;;;;;;5095549;28;20180;-83
2020/12/03 12:52:20;;;;;;;52.35;25.20;;;3.40;99.90;;;;;;5095689;28;20378;-84
2020/12/03 12:54:46;;;;;;;42.83;23.90;;;3.30;99.90;;;;;;5095500;28;20555;-86
2020/12/03 12:57:12;;;;;;;43.08;25.20;;;3.30;99.90;;;;;;5095373;28;20591;-85